sensor_id;sensor_type;location;lat;lon;timestamp;temperature;humidity
9768;DHT22;4923;52.520;13.494;2023-06-26T00:00:25;19.00;1.00
9768;DHT22;4923;52.520;13.494;2023-06-26T00:03:11;19.10;1.00
9768;DHT22;4923;52.520;13.494;2023-06-26T00:06:00;19.10;1.00
9768;DHT22;4923;52.520;13.494;2023-06-26T00:08:47;19.00;1.00
9768;DHT22;4923;52.520;13.494;2023-06-26T00:11:34;19.00;1.00
9768;DHT22;4923;52.520;13.494;2023-06-26T00:14:21;19.00;1.00
9768;DHT22;4923;52.520;13.494;2023-06-26T00:17:09;19.00;1.00
9768;DHT22;4923;52.520;13.494;2023-06-26T00:19:55;19.00;1.00
9768;DHT22;4923;52.520;13.494;2023-06-26T00:22:42;19.00;1.00
9768;DHT22;4923;52.520;13.494;2023-06-26T00:25:30;19.00;1.00
9768;DHT22;4923;52.520;13.494;2023-06-26T00:28:17;19.00;1.00
9768;DHT22;4923;52.520;13.494;2023-06-26T00:31:04;19.00;1.00
9768;DHT22;4923;52.520;13.494;2023-06-26T00:33:52;19.00;1.00
9768;DHT22;4923;52.520;13.494;2023-06-26T00:36:39;19.00;1.00
9768;DHT22;4923;52.520;13.494;2023-06-26T00:39:29;19.00;1.00
9768;DHT22;4923;52.520;13.494;2023-06-26T00:42:16;19.00;1.00
9768;DHT22;4923;52.520;13.494;2023-06-26T00:45:03;18.90;1.00
9768;DHT22;4923;52.520;13.494;2023-06-26T00:47:50;18.90;1.00
9768;DHT22;4923;52.520;13.494;2023-06-26T00:50:39;18.90;1.00
9768;DHT22;4923;52.520;13.494;2023-06-26T00:53:27;19.00;1.00
9768;DHT22;4923;52.520;13.494;2023-06-26T00:56:14;19.00;1.00
9768;DHT22;4923;52.520;13.494;2023-06-26T00:59:01;19.00;1.00
9768;DHT22;4923;52.520;13.494;2023-06-26T01:01:48;19.10;1.00
9768;DHT22;4923;52.520;13.494;2023-06-26T01:04:35;19.10;1.00
9768;DHT22;4923;52.520;13.494;2023-06-26T01:07:24;19.10;1.00
9768;DHT22;4923;52.520;13.494;2023-06-26T01:10:11;19.10;1.00
9768;DHT22;4923;52.520;13.494;2023-06-26T01:12:58;19.10;1.00
9768;DHT22;4923;52.520;13.494;2023-06-26T01:15:45;19.10;1.00
9768;DHT22;4923;52.520;13.494;2023-06-26T01:18:33;19.10;1.00
9768;DHT22;4923;52.520;13.494;2023-06-26T01:21:20;19.20;1.00
9768;DHT22;4923;52.520;13.494;2023-06-26T01:24:15;19.20;1.00
9768;DHT22;4923;52.520;13.494;2023-06-26T01:27:07;19.20;1.00
9768;DHT22;4923;52.520;13.494;2023-06-26T01:29:55;19.20;1.00
9768;DHT22;4923;52.520;13.494;2023-06-26T01:32:43;19.20;1.00
9768;DHT22;4923;52.520;13.494;2023-06-26T01:35:30;19.20;1.00
9768;DHT22;4923;52.520;13.494;2023-06-26T01:41:20;19.10;1.00
9768;DHT22;4923;52.520;13.494;2023-06-26T01:44:20;19.10;1.00
9768;DHT22;4923;52.520;13.494;2023-06-26T01:47:11;19.10;1.00
9768;DHT22;4923;52.520;13.494;2023-06-26T01:50:05;19.00;1.00
9768;DHT22;4923;52.520;13.494;2023-06-26T01:52:58;18.90;1.00
9768;DHT22;4923;52.520;13.494;2023-06-26T01:55:51;18.90;1.00
9768;DHT22;4923;52.520;13.494;2023-06-26T01:58:42;18.90;1.00
9768;DHT22;4923;52.520;13.494;2023-06-26T02:01:29;18.80;1.00
9768;DHT22;4923;52.520;13.494;2023-06-26T02:04:18;18.80;1.00
9768;DHT22;4923;52.520;13.494;2023-06-26T02:07:05;18.80;1.00
9768;DHT22;4923;52.520;13.494;2023-06-26T02:09:55;18.80;1.00
9768;DHT22;4923;52.520;13.494;2023-06-26T02:12:42;18.70;1.00
9768;DHT22;4923;52.520;13.494;2023-06-26T02:15:30;18.80;1.00
9768;DHT22;4923;52.520;13.494;2023-06-26T02:18:17;18.70;1.00
9768;DHT22;4923;52.520;13.494;2023-06-26T02:21:04;18.70;1.00
9768;DHT22;4923;52.520;13.494;2023-06-26T02:23:51;18.70;1.00
9768;DHT22;4923;52.520;13.494;2023-06-26T02:26:38;18.70;1.00
9768;DHT22;4923;52.520;13.494;2023-06-26T02:29:25;18.70;1.00
9768;DHT22;4923;52.520;13.494;2023-06-26T02:32:13;18.70;1.00
9768;DHT22;4923;52.520;13.494;2023-06-26T02:35:00;18.70;1.00
9768;DHT22;4923;52.520;13.494;2023-06-26T02:37:46;18.70;1.00
9768;DHT22;4923;52.520;13.494;2023-06-26T02:40:33;18.70;1.00
9768;DHT22;4923;52.520;13.494;2023-06-26T02:43:20;18.70;1.00
9768;DHT22;4923;52.520;13.494;2023-06-26T02:46:07;18.70;1.00
9768;DHT22;4923;52.520;13.494;2023-06-26T02:48:55;18.70;1.00
9768;DHT22;4923;52.520;13.494;2023-06-26T02:51:42;18.70;1.00
9768;DHT22;4923;52.520;13.494;2023-06-26T02:54:29;18.70;1.00
9768;DHT22;4923;52.520;13.494;2023-06-26T02:57:16;18.70;1.00
9768;DHT22;4923;52.520;13.494;2023-06-26T03:00:03;18.60;1.00
9768;DHT22;4923;52.520;13.494;2023-06-26T03:02:52;18.60;1.00
9768;DHT22;4923;52.520;13.494;2023-06-26T03:05:40;18.60;1.00
9768;DHT22;4923;52.520;13.494;2023-06-26T03:08:27;18.60;1.00
9768;DHT22;4923;52.520;13.494;2023-06-26T03:11:14;18.50;1.00
9768;DHT22;4923;52.520;13.494;2023-06-26T03:14:01;18.50;2.80
9768;DHT22;4923;52.520;13.494;2023-06-26T03:16:48;18.50;18.00
9768;DHT22;4923;52.520;13.494;2023-06-26T03:19:38;18.50;42.90
9768;DHT22;4923;52.520;13.494;2023-06-26T03:22:26;18.50;66.50
9768;DHT22;4923;52.520;13.494;2023-06-26T03:25:13;18.40;92.20
9768;DHT22;4923;52.520;13.494;2023-06-26T03:28:00;18.40;99.90
9768;DHT22;4923;52.520;13.494;2023-06-26T03:30:46;18.40;99.90
9768;DHT22;4923;52.520;13.494;2023-06-26T03:33:33;18.40;99.90
9768;DHT22;4923;52.520;13.494;2023-06-26T03:36:20;18.40;99.90
9768;DHT22;4923;52.520;13.494;2023-06-26T03:39:08;18.40;99.90
9768;DHT22;4923;52.520;13.494;2023-06-26T03:41:55;18.40;99.90
9768;DHT22;4923;52.520;13.494;2023-06-26T03:44:46;18.40;99.90
9768;DHT22;4923;52.520;13.494;2023-06-26T03:47:32;18.50;99.90
9768;DHT22;4923;52.520;13.494;2023-06-26T03:50:19;18.50;99.90
9768;DHT22;4923;52.520;13.494;2023-06-26T03:53:06;18.60;99.90
9768;DHT22;4923;52.520;13.494;2023-06-26T03:55:54;18.70;99.90
9768;DHT22;4923;52.520;13.494;2023-06-26T03:58:41;18.80;99.90
9768;DHT22;4923;52.520;13.494;2023-06-26T04:01:28;19.00;99.90
9768;DHT22;4923;52.520;13.494;2023-06-26T04:04:15;19.20;99.90
9768;DHT22;4923;52.520;13.494;2023-06-26T04:07:02;19.50;99.90
9768;DHT22;4923;52.520;13.494;2023-06-26T04:09:49;20.00;99.90
9768;DHT22;4923;52.520;13.494;2023-06-26T04:12:37;20.70;99.90
9768;DHT22;4923;52.520;13.494;2023-06-26T04:15:23;21.40;1.00
9768;DHT22;4923;52.520;13.494;2023-06-26T04:18:10;22.20;1.00
9768;DHT22;4923;52.520;13.494;2023-06-26T04:21:05;22.90;1.00
9768;DHT22;4923;52.520;13.494;2023-06-26T04:23:52;23.50;1.00
9768;DHT22;4923;52.520;13.494;2023-06-26T04:26:39;24.00;1.00
9768;DHT22;4923;52.520;13.494;2023-06-26T04:29:28;24.50;1.00
9768;DHT22;4923;52.520;13.494;2023-06-26T04:32:15;24.90;1.00
9768;DHT22;4923;52.520;13.494;2023-06-26T04:35:02;25.20;1.00
9768;DHT22;4923;52.520;13.494;2023-06-26T04:37:49;25.50;1.00
9768;DHT22;4923;52.520;13.494;2023-06-26T04:40:36;25.80;1.00
9768;DHT22;4923;52.520;13.494;2023-06-26T04:43:23;25.90;1.00
9768;DHT22;4923;52.520;13.494;2023-06-26T04:46:11;25.70;99.90
9768;DHT22;4923;52.520;13.494;2023-06-26T04:48:58;25.40;99.90
9768;DHT22;4923;52.520;13.494;2023-06-26T04:51:45;25.20;99.90
9768;DHT22;4923;52.520;13.494;2023-06-26T04:54:31;25.10;99.90
9768;DHT22;4923;52.520;13.494;2023-06-26T04:57:18;25.00;99.90
9768;DHT22;4923;52.520;13.494;2023-06-26T05:00:06;24.90;99.90
9768;DHT22;4923;52.520;13.494;2023-06-26T05:02:57;24.70;99.90
9768;DHT22;4923;52.520;13.494;2023-06-26T05:05:46;24.70;99.90
9768;DHT22;4923;52.520;13.494;2023-06-26T05:08:33;24.70;99.90
9768;DHT22;4923;52.520;13.494;2023-06-26T05:11:20;24.70;99.90
9768;DHT22;4923;52.520;13.494;2023-06-26T05:14:06;24.90;99.90
9768;DHT22;4923;52.520;13.494;2023-06-26T05:16:54;25.20;99.90
9768;DHT22;4923;52.520;13.494;2023-06-26T05:19:42;25.50;99.90
9768;DHT22;4923;52.520;13.494;2023-06-26T05:22:29;25.60;99.90
9768;DHT22;4923;52.520;13.494;2023-06-26T05:25:18;25.60;99.90
9768;DHT22;4923;52.520;13.494;2023-06-26T05:28:07;25.70;99.90
9768;DHT22;4923;52.520;13.494;2023-06-26T05:30:56;25.80;99.90
9768;DHT22;4923;52.520;13.494;2023-06-26T05:33:44;26.10;99.90
9768;DHT22;4923;52.520;13.494;2023-06-26T05:36:33;26.30;99.90
9768;DHT22;4923;52.520;13.494;2023-06-26T05:39:22;26.30;99.90
9768;DHT22;4923;52.520;13.494;2023-06-26T05:42:10;26.40;99.90
9768;DHT22;4923;52.520;13.494;2023-06-26T05:44:57;26.40;99.90
9768;DHT22;4923;52.520;13.494;2023-06-26T05:47:44;26.40;99.90
9768;DHT22;4923;52.520;13.494;2023-06-26T05:50:32;26.50;99.90
9768;DHT22;4923;52.520;13.494;2023-06-26T05:53:21;26.30;99.90
9768;DHT22;4923;52.520;13.494;2023-06-26T05:56:09;26.10;99.90
9768;DHT22;4923;52.520;13.494;2023-06-26T05:58:57;26.00;99.90
9768;DHT22;4923;52.520;13.494;2023-06-26T06:01:45;25.90;99.90
9768;DHT22;4923;52.520;13.494;2023-06-26T06:04:31;25.80;99.90
9768;DHT22;4923;52.520;13.494;2023-06-26T06:07:18;25.80;99.90
9768;DHT22;4923;52.520;13.494;2023-06-26T06:10:07;25.80;99.90
9768;DHT22;4923;52.520;13.494;2023-06-26T06:12:54;25.80;99.90
9768;DHT22;4923;52.520;13.494;2023-06-26T06:15:41;25.80;99.90
9768;DHT22;4923;52.520;13.494;2023-06-26T06:18:28;25.80;99.90
9768;DHT22;4923;52.520;13.494;2023-06-26T06:21:15;25.80;99.90
9768;DHT22;4923;52.520;13.494;2023-06-26T06:24:02;25.90;99.90
9768;DHT22;4923;52.520;13.494;2023-06-26T06:26:50;25.80;99.90
9768;DHT22;4923;52.520;13.494;2023-06-26T06:29:37;25.80;99.90
9768;DHT22;4923;52.520;13.494;2023-06-26T06:32:24;25.80;99.90
9768;DHT22;4923;52.520;13.494;2023-06-26T06:35:10;25.80;99.90
9768;DHT22;4923;52.520;13.494;2023-06-26T06:37:57;25.90;99.90
9768;DHT22;4923;52.520;13.494;2023-06-26T06:40:44;25.80;99.90
9768;DHT22;4923;52.520;13.494;2023-06-26T06:43:32;25.80;99.90
9768;DHT22;4923;52.520;13.494;2023-06-26T06:46:19;25.80;99.90
9768;DHT22;4923;52.520;13.494;2023-06-26T06:49:06;25.80;99.90
9768;DHT22;4923;52.520;13.494;2023-06-26T06:51:53;25.90;99.90
9768;DHT22;4923;52.520;13.494;2023-06-26T06:54:51;26.00;99.90
9768;DHT22;4923;52.520;13.494;2023-06-26T06:57:39;26.20;99.90
9768;DHT22;4923;52.520;13.494;2023-06-26T07:00:27;26.30;99.90
9768;DHT22;4923;52.520;13.494;2023-06-26T07:03:14;26.40;99.90
9768;DHT22;4923;52.520;13.494;2023-06-26T07:06:01;26.50;99.90
9768;DHT22;4923;52.520;13.494;2023-06-26T07:08:48;26.50;99.90
9768;DHT22;4923;52.520;13.494;2023-06-26T07:11:36;26.50;99.90
9768;DHT22;4923;52.520;13.494;2023-06-26T07:14:23;26.60;99.90
9768;DHT22;4923;52.520;13.494;2023-06-26T07:17:11;26.70;99.90
9768;DHT22;4923;52.520;13.494;2023-06-26T07:19:58;26.70;99.90
9768;DHT22;4923;52.520;13.494;2023-06-26T07:22:45;26.80;99.90
9768;DHT22;4923;52.520;13.494;2023-06-26T07:25:32;26.90;99.90
9768;DHT22;4923;52.520;13.494;2023-06-26T07:28:19;27.00;99.90
9768;DHT22;4923;52.520;13.494;2023-06-26T07:31:06;27.10;99.90
9768;DHT22;4923;52.520;13.494;2023-06-26T07:33:54;27.10;99.90
9768;DHT22;4923;52.520;13.494;2023-06-26T07:36:41;27.30;99.90
9768;DHT22;4923;52.520;13.494;2023-06-26T07:39:28;27.10;99.90
9768;DHT22;4923;52.520;13.494;2023-06-26T07:42:15;27.20;99.90
9768;DHT22;4923;52.520;13.494;2023-06-26T07:45:02;27.20;99.90
9768;DHT22;4923;52.520;13.494;2023-06-26T07:47:55;27.30;99.90
9768;DHT22;4923;52.520;13.494;2023-06-26T07:50:43;27.40;99.90
9768;DHT22;4923;52.520;13.494;2023-06-26T07:53:30;27.60;99.90
9768;DHT22;4923;52.520;13.494;2023-06-26T07:56:17;27.80;99.90
9768;DHT22;4923;52.520;13.494;2023-06-26T07:59:04;27.70;99.90
9768;DHT22;4923;52.520;13.494;2023-06-26T08:01:52;27.90;99.90
9768;DHT22;4923;52.520;13.494;2023-06-26T08:04:39;27.90;99.90
9768;DHT22;4923;52.520;13.494;2023-06-26T08:07:27;28.00;99.90
9768;DHT22;4923;52.520;13.494;2023-06-26T08:10:14;28.20;99.90
9768;DHT22;4923;52.520;13.494;2023-06-26T08:13:01;28.40;99.90
9768;DHT22;4923;52.520;13.494;2023-06-26T08:15:48;28.60;99.90
9768;DHT22;4923;52.520;13.494;2023-06-26T08:18:35;28.70;99.90
9768;DHT22;4923;52.520;13.494;2023-06-26T08:21:22;28.80;99.90
9768;DHT22;4923;52.520;13.494;2023-06-26T08:24:10;28.80;99.90
9768;DHT22;4923;52.520;13.494;2023-06-26T08:26:58;28.80;99.90
9768;DHT22;4923;52.520;13.494;2023-06-26T08:29:45;28.80;99.90
9768;DHT22;4923;52.520;13.494;2023-06-26T08:32:32;28.90;99.90
9768;DHT22;4923;52.520;13.494;2023-06-26T08:35:19;29.10;99.90
9768;DHT22;4923;52.520;13.494;2023-06-26T08:38:06;29.10;99.90
9768;DHT22;4923;52.520;13.494;2023-06-26T08:40:56;29.10;99.90
9768;DHT22;4923;52.520;13.494;2023-06-26T08:43:43;29.10;99.90
9768;DHT22;4923;52.520;13.494;2023-06-26T08:46:31;29.10;99.90
9768;DHT22;4923;52.520;13.494;2023-06-26T08:49:20;29.30;99.90
9768;DHT22;4923;52.520;13.494;2023-06-26T08:52:13;29.40;99.90
9768;DHT22;4923;52.520;13.494;2023-06-26T08:55:08;29.40;99.90
9768;DHT22;4923;52.520;13.494;2023-06-26T08:57:57;29.50;99.90
9768;DHT22;4923;52.520;13.494;2023-06-26T09:00:44;29.40;99.90
9768;DHT22;4923;52.520;13.494;2023-06-26T09:03:31;29.20;99.90
9768;DHT22;4923;52.520;13.494;2023-06-26T09:06:18;29.30;99.90
9768;DHT22;4923;52.520;13.494;2023-06-26T09:09:05;29.30;99.90
9768;DHT22;4923;52.520;13.494;2023-06-26T09:11:53;29.30;99.90
9768;DHT22;4923;52.520;13.494;2023-06-26T09:14:42;29.20;99.90
9768;DHT22;4923;52.520;13.494;2023-06-26T09:17:30;29.40;99.90
9768;DHT22;4923;52.520;13.494;2023-06-26T09:20:17;29.40;99.90
9768;DHT22;4923;52.520;13.494;2023-06-26T09:23:04;29.50;99.90
9768;DHT22;4923;52.520;13.494;2023-06-26T09:25:51;29.70;99.90
9768;DHT22;4923;52.520;13.494;2023-06-26T09:28:38;29.90;99.90
9768;DHT22;4923;52.520;13.494;2023-06-26T09:31:26;29.80;99.90
9768;DHT22;4923;52.520;13.494;2023-06-26T09:34:13;29.70;99.90
9768;DHT22;4923;52.520;13.494;2023-06-26T09:37:00;29.60;99.90
9768;DHT22;4923;52.520;13.494;2023-06-26T09:39:48;29.60;99.90
9768;DHT22;4923;52.520;13.494;2023-06-26T09:42:35;29.70;99.90
9768;DHT22;4923;52.520;13.494;2023-06-26T09:45:22;29.70;99.90
9768;DHT22;4923;52.520;13.494;2023-06-26T09:48:14;29.60;99.90
9768;DHT22;4923;52.520;13.494;2023-06-26T09:51:02;29.90;99.90
9768;DHT22;4923;52.520;13.494;2023-06-26T09:53:49;29.90;99.90
9768;DHT22;4923;52.520;13.494;2023-06-26T09:56:36;29.90;99.90
9768;DHT22;4923;52.520;13.494;2023-06-26T09:59:23;30.00;99.90
9768;DHT22;4923;52.520;13.494;2023-06-26T10:02:10;29.90;99.90
9768;DHT22;4923;52.520;13.494;2023-06-26T10:04:59;30.00;99.90
9768;DHT22;4923;52.520;13.494;2023-06-26T10:07:46;30.00;99.90
9768;DHT22;4923;52.520;13.494;2023-06-26T10:10:35;30.10;99.90
9768;DHT22;4923;52.520;13.494;2023-06-26T10:13:27;30.00;99.90
9768;DHT22;4923;52.520;13.494;2023-06-26T10:16:19;30.10;99.90
9768;DHT22;4923;52.520;13.494;2023-06-26T10:19:10;30.30;99.90
9768;DHT22;4923;52.520;13.494;2023-06-26T10:22:01;30.40;99.90
9768;DHT22;4923;52.520;13.494;2023-06-26T10:24:49;30.30;99.90
9768;DHT22;4923;52.520;13.494;2023-06-26T10:27:40;30.30;99.90
9768;DHT22;4923;52.520;13.494;2023-06-26T10:30:30;30.30;99.90
9768;DHT22;4923;52.520;13.494;2023-06-26T10:33:19;30.40;99.90
9768;DHT22;4923;52.520;13.494;2023-06-26T10:36:16;30.40;99.90
9768;DHT22;4923;52.520;13.494;2023-06-26T10:39:06;30.50;99.90
9768;DHT22;4923;52.520;13.494;2023-06-26T10:41:55;30.60;99.90
9768;DHT22;4923;52.520;13.494;2023-06-26T10:44:42;30.70;99.90
9768;DHT22;4923;52.520;13.494;2023-06-26T10:47:30;30.70;99.90
9768;DHT22;4923;52.520;13.494;2023-06-26T10:50:18;30.80;99.90
9768;DHT22;4923;52.520;13.494;2023-06-26T10:53:10;30.80;99.90
9768;DHT22;4923;52.520;13.494;2023-06-26T10:56:02;30.80;99.90
9768;DHT22;4923;52.520;13.494;2023-06-26T10:58:49;30.80;99.90
9768;DHT22;4923;52.520;13.494;2023-06-26T11:01:40;30.80;99.90
9768;DHT22;4923;52.520;13.494;2023-06-26T11:04:41;31.00;99.90
9768;DHT22;4923;52.520;13.494;2023-06-26T11:07:30;31.10;99.90
9768;DHT22;4923;52.520;13.494;2023-06-26T11:10:17;31.10;99.90
9768;DHT22;4923;52.520;13.494;2023-06-26T11:13:06;31.20;99.90
9768;DHT22;4923;52.520;13.494;2023-06-26T11:15:54;31.30;99.90
9768;DHT22;4923;52.520;13.494;2023-06-26T11:18:42;31.40;99.90
9768;DHT22;4923;52.520;13.494;2023-06-26T11:21:31;31.10;99.90
9768;DHT22;4923;52.520;13.494;2023-06-26T11:24:19;31.10;99.90
9768;DHT22;4923;52.520;13.494;2023-06-26T11:27:06;31.40;99.90
9768;DHT22;4923;52.520;13.494;2023-06-26T11:29:54;31.50;99.90
9768;DHT22;4923;52.520;13.494;2023-06-26T11:32:41;31.60;99.90
9768;DHT22;4923;52.520;13.494;2023-06-26T11:35:28;31.60;99.90
9768;DHT22;4923;52.520;13.494;2023-06-26T11:38:16;31.70;99.90
9768;DHT22;4923;52.520;13.494;2023-06-26T11:41:03;31.70;99.90
9768;DHT22;4923;52.520;13.494;2023-06-26T11:43:54;32.10;99.90
9768;DHT22;4923;52.520;13.494;2023-06-26T11:46:42;32.30;99.90
9768;DHT22;4923;52.520;13.494;2023-06-26T11:49:29;32.40;99.90
9768;DHT22;4923;52.520;13.494;2023-06-26T11:52:16;32.20;99.90
9768;DHT22;4923;52.520;13.494;2023-06-26T11:55:03;32.10;99.90
9768;DHT22;4923;52.520;13.494;2023-06-26T11:57:53;31.90;99.90
9768;DHT22;4923;52.520;13.494;2023-06-26T12:00:41;32.20;99.90
9768;DHT22;4923;52.520;13.494;2023-06-26T12:03:32;32.30;99.90
9768;DHT22;4923;52.520;13.494;2023-06-26T12:06:19;32.30;99.90
9768;DHT22;4923;52.520;13.494;2023-06-26T12:09:09;32.10;99.90
9768;DHT22;4923;52.520;13.494;2023-06-26T12:11:57;32.20;99.90
9768;DHT22;4923;52.520;13.494;2023-06-26T12:14:45;32.30;99.90
9768;DHT22;4923;52.520;13.494;2023-06-26T12:17:32;32.30;99.90
9768;DHT22;4923;52.520;13.494;2023-06-26T12:20:21;32.20;99.90
9768;DHT22;4923;52.520;13.494;2023-06-26T12:23:12;32.20;99.90
9768;DHT22;4923;52.520;13.494;2023-06-26T12:25:59;32.20;99.90
9768;DHT22;4923;52.520;13.494;2023-06-26T12:28:46;32.20;99.90
9768;DHT22;4923;52.520;13.494;2023-06-26T12:31:34;32.40;99.90
9768;DHT22;4923;52.520;13.494;2023-06-26T12:34:26;32.80;99.90
9768;DHT22;4923;52.520;13.494;2023-06-26T12:37:15;33.10;99.90
9768;DHT22;4923;52.520;13.494;2023-06-26T12:40:03;33.40;99.90
9768;DHT22;4923;52.520;13.494;2023-06-26T12:42:53;33.30;99.90
9768;DHT22;4923;52.520;13.494;2023-06-26T12:45:42;33.20;99.90
9768;DHT22;4923;52.520;13.494;2023-06-26T12:48:38;33.30;99.90
9768;DHT22;4923;52.520;13.494;2023-06-26T12:51:29;33.60;99.90
9768;DHT22;4923;52.520;13.494;2023-06-26T12:54:17;33.80;99.90
9768;DHT22;4923;52.520;13.494;2023-06-26T12:57:04;33.60;99.90
9768;DHT22;4923;52.520;13.494;2023-06-26T12:59:52;33.50;99.90
9768;DHT22;4923;52.520;13.494;2023-06-26T13:02:39;33.30;99.90
9768;DHT22;4923;52.520;13.494;2023-06-26T13:05:26;33.20;99.90
9768;DHT22;4923;52.520;13.494;2023-06-26T13:08:13;33.00;99.90
9768;DHT22;4923;52.520;13.494;2023-06-26T13:11:04;32.90;99.90
9768;DHT22;4923;52.520;13.494;2023-06-26T13:13:51;32.80;99.90
9768;DHT22;4923;52.520;13.494;2023-06-26T13:16:37;32.80;99.90
9768;DHT22;4923;52.520;13.494;2023-06-26T13:19:24;32.60;99.90
9768;DHT22;4923;52.520;13.494;2023-06-26T13:22:11;32.30;99.90
9768;DHT22;4923;52.520;13.494;2023-06-26T13:24:58;32.20;99.90
9768;DHT22;4923;52.520;13.494;2023-06-26T13:27:47;32.20;99.90
9768;DHT22;4923;52.520;13.494;2023-06-26T13:30:33;32.20;99.90
9768;DHT22;4923;52.520;13.494;2023-06-26T13:33:20;31.90;99.90
9768;DHT22;4923;52.520;13.494;2023-06-26T13:36:11;31.70;99.90
9768;DHT22;4923;52.520;13.494;2023-06-26T13:38:57;31.30;99.90
9768;DHT22;4923;52.520;13.494;2023-06-26T13:41:44;31.10;99.90
9768;DHT22;4923;52.520;13.494;2023-06-26T13:44:33;30.90;99.90
9768;DHT22;4923;52.520;13.494;2023-06-26T13:47:19;30.80;99.90
9768;DHT22;4923;52.520;13.494;2023-06-26T13:50:07;30.70;99.90
9768;DHT22;4923;52.520;13.494;2023-06-26T13:52:54;30.60;99.90
9768;DHT22;4923;52.520;13.494;2023-06-26T13:55:42;30.60;99.90
9768;DHT22;4923;52.520;13.494;2023-06-26T13:58:29;30.70;99.90
9768;DHT22;4923;52.520;13.494;2023-06-26T14:01:19;30.70;99.90
9768;DHT22;4923;52.520;13.494;2023-06-26T14:04:06;30.60;99.90
9768;DHT22;4923;52.520;13.494;2023-06-26T14:06:53;30.40;99.90
9768;DHT22;4923;52.520;13.494;2023-06-26T14:09:40;30.40;99.90
9768;DHT22;4923;52.520;13.494;2023-06-26T14:12:27;30.30;99.90
9768;DHT22;4923;52.520;13.494;2023-06-26T14:15:13;30.10;99.90
9768;DHT22;4923;52.520;13.494;2023-06-26T14:18:02;29.90;99.90
9768;DHT22;4923;52.520;13.494;2023-06-26T14:20:50;29.70;99.90
9768;DHT22;4923;52.520;13.494;2023-06-26T14:23:37;29.50;99.90
9768;DHT22;4923;52.520;13.494;2023-06-26T14:26:23;29.30;99.90
9768;DHT22;4923;52.520;13.494;2023-06-26T14:29:10;29.10;99.90
9768;DHT22;4923;52.520;13.494;2023-06-26T14:31:58;28.90;99.90
9768;DHT22;4923;52.520;13.494;2023-06-26T14:34:46;26.90;99.90
9768;DHT22;4923;52.520;13.494;2023-06-26T14:37:36;22.80;1.00
9768;DHT22;4923;52.520;13.494;2023-06-26T14:40:24;19.80;99.90
9768;DHT22;4923;52.520;13.494;2023-06-26T14:43:11;18.70;99.90
9768;DHT22;4923;52.520;13.494;2023-06-26T14:45:58;18.90;1.00
9768;DHT22;4923;52.520;13.494;2023-06-26T14:48:45;18.80;99.90
9768;DHT22;4923;52.520;13.494;2023-06-26T14:51:33;18.80;1.00
9768;DHT22;4923;52.520;13.494;2023-06-26T14:54:20;18.80;99.90
9768;DHT22;4923;52.520;13.494;2023-06-26T14:57:07;18.90;1.00
9768;DHT22;4923;52.520;13.494;2023-06-26T14:59:54;18.90;99.90
9768;DHT22;4923;52.520;13.494;2023-06-26T15:02:41;19.10;1.00
9768;DHT22;4923;52.520;13.494;2023-06-26T15:05:28;19.20;1.00
9768;DHT22;4923;52.520;13.494;2023-06-26T15:08:16;19.30;1.00
9768;DHT22;4923;52.520;13.494;2023-06-26T15:11:03;19.40;1.00
9768;DHT22;4923;52.520;13.494;2023-06-26T15:13:49;19.50;99.90
9768;DHT22;4923;52.520;13.494;2023-06-26T15:16:36;19.60;1.00
9768;DHT22;4923;52.520;13.494;2023-06-26T15:19:23;19.60;1.00
9768;DHT22;4923;52.520;13.494;2023-06-26T15:22:10;19.60;1.00
9768;DHT22;4923;52.520;13.494;2023-06-26T15:24:58;19.50;99.90
9768;DHT22;4923;52.520;13.494;2023-06-26T15:27:45;19.20;99.90
9768;DHT22;4923;52.520;13.494;2023-06-26T15:30:32;19.10;1.00
9768;DHT22;4923;52.520;13.494;2023-06-26T15:33:19;18.80;1.00
9768;DHT22;4923;52.520;13.494;2023-06-26T15:36:06;19.00;1.00
9768;DHT22;4923;52.520;13.494;2023-06-26T15:38:53;18.90;95.60
9768;DHT22;4923;52.520;13.494;2023-06-26T15:41:41;18.80;99.90
9768;DHT22;4923;52.520;13.494;2023-06-26T15:44:28;18.60;99.90
9768;DHT22;4923;52.520;13.494;2023-06-26T15:47:16;18.70;99.90
9768;DHT22;4923;52.520;13.494;2023-06-26T15:50:03;18.80;99.90
9768;DHT22;4923;52.520;13.494;2023-06-26T15:52:50;18.80;99.90
9768;DHT22;4923;52.520;13.494;2023-06-26T15:55:37;18.90;99.90
9768;DHT22;4923;52.520;13.494;2023-06-26T15:58:26;19.00;99.90
9768;DHT22;4923;52.520;13.494;2023-06-26T16:01:13;19.10;99.90
9768;DHT22;4923;52.520;13.494;2023-06-26T16:04:00;19.10;99.90
9768;DHT22;4923;52.520;13.494;2023-06-26T16:06:47;19.20;99.90
9768;DHT22;4923;52.520;13.494;2023-06-26T16:09:34;19.40;99.90
9768;DHT22;4923;52.520;13.494;2023-06-26T16:12:21;19.40;99.90
9768;DHT22;4923;52.520;13.494;2023-06-26T16:15:10;19.50;99.90
9768;DHT22;4923;52.520;13.494;2023-06-26T16:17:57;19.70;99.90
9768;DHT22;4923;52.520;13.494;2023-06-26T16:20:44;19.60;99.90
9768;DHT22;4923;52.520;13.494;2023-06-26T16:23:31;19.80;99.90
9768;DHT22;4923;52.520;13.494;2023-06-26T16:26:19;20.00;99.90
9768;DHT22;4923;52.520;13.494;2023-06-26T16:29:07;20.20;1.00
9768;DHT22;4923;52.520;13.494;2023-06-26T16:31:56;20.30;1.00
9768;DHT22;4923;52.520;13.494;2023-06-26T16:34:42;20.70;1.00
9768;DHT22;4923;52.520;13.494;2023-06-26T16:37:29;20.60;99.90
9768;DHT22;4923;52.520;13.494;2023-06-26T16:40:16;20.40;99.90
9768;DHT22;4923;52.520;13.494;2023-06-26T16:43:03;20.30;99.90
9768;DHT22;4923;52.520;13.494;2023-06-26T16:45:51;20.50;99.90
9768;DHT22;4923;52.520;13.494;2023-06-26T16:48:39;20.20;99.90
9768;DHT22;4923;52.520;13.494;2023-06-26T16:51:26;20.00;99.90
9768;DHT22;4923;52.520;13.494;2023-06-26T16:54:13;20.10;99.90
9768;DHT22;4923;52.520;13.494;2023-06-26T16:57:00;19.60;99.90
9768;DHT22;4923;52.520;13.494;2023-06-26T16:59:47;19.70;99.90
9768;DHT22;4923;52.520;13.494;2023-06-26T17:02:33;19.70;99.90
9768;DHT22;4923;52.520;13.494;2023-06-26T17:05:21;19.80;99.90
9768;DHT22;4923;52.520;13.494;2023-06-26T17:08:08;19.70;99.90
9768;DHT22;4923;52.520;13.494;2023-06-26T17:10:56;19.60;99.90
9768;DHT22;4923;52.520;13.494;2023-06-26T17:13:43;19.70;99.90
9768;DHT22;4923;52.520;13.494;2023-06-26T17:16:30;19.90;99.90
9768;DHT22;4923;52.520;13.494;2023-06-26T17:19:18;19.90;99.90
9768;DHT22;4923;52.520;13.494;2023-06-26T17:22:06;19.80;99.90
9768;DHT22;4923;52.520;13.494;2023-06-26T17:24:53;19.80;99.90
9768;DHT22;4923;52.520;13.494;2023-06-26T17:27:44;19.90;99.90
9768;DHT22;4923;52.520;13.494;2023-06-26T17:30:31;20.50;99.90
9768;DHT22;4923;52.520;13.494;2023-06-26T17:33:18;20.70;99.90
9768;DHT22;4923;52.520;13.494;2023-06-26T17:36:05;20.90;99.90
9768;DHT22;4923;52.520;13.494;2023-06-26T17:38:53;21.10;99.90
9768;DHT22;4923;52.520;13.494;2023-06-26T17:41:41;20.90;99.90
9768;DHT22;4923;52.520;13.494;2023-06-26T17:44:27;20.80;99.90
9768;DHT22;4923;52.520;13.494;2023-06-26T17:47:14;20.70;99.90
9768;DHT22;4923;52.520;13.494;2023-06-26T17:50:02;20.50;99.90
9768;DHT22;4923;52.520;13.494;2023-06-26T17:52:49;20.70;99.90
9768;DHT22;4923;52.520;13.494;2023-06-26T17:55:37;20.70;99.90
9768;DHT22;4923;52.520;13.494;2023-06-26T17:58:24;20.40;99.90
9768;DHT22;4923;52.520;13.494;2023-06-26T18:01:11;20.30;99.90
9768;DHT22;4923;52.520;13.494;2023-06-26T18:03:58;20.30;99.90